sensor_id;sensor_type;location;lat;lon;timestamp;pressure;altitude;pressure_sealevel;temperature;humidity
31717;BME280;18301;51.076;17.046;2023-04-30T00:04:50;100320.72;;;12.26;72.57
31717;BME280;18301;51.076;17.046;2023-04-30T00:09:52;100310.41;;;12.19;72.87
31717;BME280;18301;51.076;17.046;2023-04-30T00:14:54;100319.69;;;12.38;71.91
31717;BME280;18301;51.076;17.046;2023-04-30T00:19:56;100311.50;;;12.17;72.86
31717;BME280;18301;51.076;17.046;2023-04-30T00:24:58;100316.06;;;12.16;72.91
31717;BME280;18301;51.076;17.046;2023-04-30T00:29:59;100322.81;;;12.00;72.56
31717;BME280;18301;51.076;17.046;2023-04-30T00:35:01;100324.91;;;11.96;72.84
31717;BME280;18301;51.076;17.046;2023-04-30T00:40:03;100330.31;;;11.85;72.40
31717;BME280;18301;51.076;17.046;2023-04-30T00:45:05;100335.25;;;12.02;72.57
31717;BME280;18301;51.076;17.046;2023-04-30T00:50:07;100345.09;;;11.92;72.31
31717;BME280;18301;51.076;17.046;2023-04-30T00:55:10;100339.78;;;11.90;72.85
31717;BME280;18301;51.076;17.046;2023-04-30T01:00:12;100344.34;;;12.01;72.28
31717;BME280;18301;51.076;17.046;2023-04-30T01:05:14;100353.44;;;12.00;72.52
31717;BME280;18301;51.076;17.046;2023-04-30T01:10:16;100355.66;;;11.95;72.64
31717;BME280;18301;51.076;17.046;2023-04-30T01:15:27;100350.09;;;11.85;72.76
31717;BME280;18301;51.076;17.046;2023-04-30T01:20:32;100362.00;;;11.83;72.69
31717;BME280;18301;51.076;17.046;2023-04-30T01:30:51;100361.81;;;11.86;72.46
31717;BME280;18301;51.076;17.046;2023-04-30T01:41:08;100363.88;;;11.93;72.37
31717;BME280;18301;51.076;17.046;2023-04-30T01:46:23;100374.53;;;11.84;72.38
31717;BME280;18301;51.076;17.046;2023-04-30T01:51:33;100371.94;;;11.82;72.51
31717;BME280;18301;51.076;17.046;2023-04-30T01:56:45;100380.97;;;11.94;72.08
31717;BME280;18301;51.076;17.046;2023-04-30T02:01:49;100379.84;;;11.85;72.05
31717;BME280;18301;51.076;17.046;2023-04-30T02:06:50;100384.38;;;11.73;72.29
31717;BME280;18301;51.076;17.046;2023-04-30T02:11:52;100387.06;;;11.62;72.22
31717;BME280;18301;51.076;17.046;2023-04-30T02:16:53;100394.13;;;11.41;72.91
31717;BME280;18301;51.076;17.046;2023-04-30T02:21:55;100399.56;;;11.17;73.67
31717;BME280;18301;51.076;17.046;2023-04-30T02:26:56;100407.53;;;11.07;74.11
31717;BME280;18301;51.076;17.046;2023-04-30T02:31:58;100405.44;;;11.11;74.02
31717;BME280;18301;51.076;17.046;2023-04-30T02:36:59;100407.44;;;11.20;73.43
31717;BME280;18301;51.076;17.046;2023-04-30T02:42:01;100402.81;;;10.98;74.09
31717;BME280;18301;51.076;17.046;2023-04-30T02:47:02;100412.59;;;10.88;74.40
31717;BME280;18301;51.076;17.046;2023-04-30T02:52:04;100414.59;;;10.97;74.12
31717;BME280;18301;51.076;17.046;2023-04-30T02:57:05;100418.28;;;10.72;74.51
31717;BME280;18301;51.076;17.046;2023-04-30T03:02:07;100418.69;;;10.78;74.36
31717;BME280;18301;51.076;17.046;2023-04-30T03:07:09;100430.97;;;10.82;73.95
31717;BME280;18301;51.076;17.046;2023-04-30T03:12:10;100430.03;;;10.71;74.58
31717;BME280;18301;51.076;17.046;2023-04-30T03:17:12;100431.88;;;10.70;74.30
31717;BME280;18301;51.076;17.046;2023-04-30T03:22:13;100436.28;;;10.71;74.03
31717;BME280;18301;51.076;17.046;2023-04-30T03:27:14;100452.41;;;10.60;74.37
31717;BME280;18301;51.076;17.046;2023-04-30T03:32:17;100457.59;;;10.63;73.84
31717;BME280;18301;51.076;17.046;2023-04-30T03:37:18;100460.53;;;10.60;73.83
31717;BME280;18301;51.076;17.046;2023-04-30T03:42:20;100461.50;;;10.21;74.26
31717;BME280;18301;51.076;17.046;2023-04-30T03:47:21;100468.22;;;10.15;74.78
31717;BME280;18301;51.076;17.046;2023-04-30T03:52:23;100473.19;;;10.47;73.16
31717;BME280;18301;51.076;17.046;2023-04-30T03:57:24;100478.25;;;10.13;74.24
31717;BME280;18301;51.076;17.046;2023-04-30T04:02:26;100493.66;;;10.11;74.30
31717;BME280;18301;51.076;17.046;2023-04-30T04:07:28;100497.88;;;10.15;73.88
31717;BME280;18301;51.076;17.046;2023-04-30T04:12:29;100506.38;;;10.09;74.60
31717;BME280;18301;51.076;17.046;2023-04-30T04:17:30;100515.03;;;10.14;74.66
31717;BME280;18301;51.076;17.046;2023-04-30T04:22:32;100514.16;;;10.01;74.45
31717;BME280;18301;51.076;17.046;2023-04-30T04:27:34;100529.03;;;10.06;74.28
31717;BME280;18301;51.076;17.046;2023-04-30T04:32:35;100531.22;;;10.14;72.85
31717;BME280;18301;51.076;17.046;2023-04-30T04:37:49;100539.09;;;10.04;73.46
31717;BME280;18301;51.076;17.046;2023-04-30T04:42:51;100531.41;;;10.11;73.63
31717;BME280;18301;51.076;17.046;2023-04-30T04:47:52;100559.03;;;10.14;73.26
31717;BME280;18301;51.076;17.046;2023-04-30T04:52:54;100558.75;;;10.32;72.70
31717;BME280;18301;51.076;17.046;2023-04-30T04:57:55;100568.56;;;10.46;72.15
31717;BME280;18301;51.076;17.046;2023-04-30T05:02:57;100569.66;;;10.69;71.32
31717;BME280;18301;51.076;17.046;2023-04-30T05:07:58;100570.34;;;10.96;70.36
31717;BME280;18301;51.076;17.046;2023-04-30T05:13:00;100575.25;;;10.78;70.43
31717;BME280;18301;51.076;17.046;2023-04-30T05:18:01;100587.34;;;10.60;70.95
31717;BME280;18301;51.076;17.046;2023-04-30T05:23:03;100582.22;;;10.94;68.79
31717;BME280;18301;51.076;17.046;2023-04-30T05:28:05;100597.16;;;11.23;69.47
31717;BME280;18301;51.076;17.046;2023-04-30T05:33:06;100595.22;;;11.25;67.24
31717;BME280;18301;51.076;17.046;2023-04-30T05:38:08;100590.22;;;11.32;69.48
31717;BME280;18301;51.076;17.046;2023-04-30T05:43:10;100598.50;;;11.66;67.62
31717;BME280;18301;51.076;17.046;2023-04-30T05:48:11;100591.31;;;11.78;66.85
31717;BME280;18301;51.076;17.046;2023-04-30T05:53:13;100599.59;;;12.11;68.41
31717;BME280;18301;51.076;17.046;2023-04-30T05:58:14;100604.81;;;12.37;66.46
31717;BME280;18301;51.076;17.046;2023-04-30T06:03:16;100609.00;;;12.30;66.80
31717;BME280;18301;51.076;17.046;2023-04-30T06:08:17;100623.31;;;12.54;65.93
31717;BME280;18301;51.076;17.046;2023-04-30T06:13:19;100631.75;;;11.92;65.33
31717;BME280;18301;51.076;17.046;2023-04-30T06:18:20;100637.53;;;11.98;65.44
31717;BME280;18301;51.076;17.046;2023-04-30T06:23:22;100633.63;;;12.38;65.11
31717;BME280;18301;51.076;17.046;2023-04-30T06:28:23;100630.34;;;12.68;64.08
31717;BME280;18301;51.076;17.046;2023-04-30T06:33:25;100642.59;;;12.50;64.65
31717;BME280;18301;51.076;17.046;2023-04-30T06:38:26;100643.91;;;12.79;62.78
31717;BME280;18301;51.076;17.046;2023-04-30T06:43:28;100646.75;;;13.00;62.87
31717;BME280;18301;51.076;17.046;2023-04-30T06:48:29;100639.63;;;12.99;61.98
31717;BME280;18301;51.076;17.046;2023-04-30T06:53:30;100642.19;;;13.01;63.69
31717;BME280;18301;51.076;17.046;2023-04-30T06:58:32;100648.47;;;13.46;62.30
31717;BME280;18301;51.076;17.046;2023-04-30T07:03:34;100648.69;;;13.54;59.08
31717;BME280;18301;51.076;17.046;2023-04-30T07:08:35;100652.91;;;13.47;60.53
31717;BME280;18301;51.076;17.046;2023-04-30T07:13:37;100660.03;;;13.59;60.37
31717;BME280;18301;51.076;17.046;2023-04-30T07:18:38;100670.31;;;13.88;59.66
31717;BME280;18301;51.076;17.046;2023-04-30T07:23:41;100663.84;;;14.00;57.85
31717;BME280;18301;51.076;17.046;2023-04-30T07:28:47;100666.31;;;14.03;58.48
31717;BME280;18301;51.076;17.046;2023-04-30T07:33:50;100668.25;;;14.13;56.90
31717;BME280;18301;51.076;17.046;2023-04-30T07:38:52;100679.94;;;13.92;56.69
31717;BME280;18301;51.076;17.046;2023-04-30T07:43:54;100678.69;;;13.96;57.96
31717;BME280;18301;51.076;17.046;2023-04-30T07:48:55;100681.16;;;13.88;58.29
31717;BME280;18301;51.076;17.046;2023-04-30T07:53:57;100680.25;;;14.10;57.97
31717;BME280;18301;51.076;17.046;2023-04-30T07:58:58;100681.00;;;14.33;57.41
31717;BME280;18301;51.076;17.046;2023-04-30T08:04:00;100691.44;;;14.17;56.63
31717;BME280;18301;51.076;17.046;2023-04-30T08:09:01;100691.81;;;14.44;57.65
31717;BME280;18301;51.076;17.046;2023-04-30T08:14:03;100703.09;;;14.61;54.60
31717;BME280;18301;51.076;17.046;2023-04-30T08:19:07;100707.59;;;14.50;54.56
31717;BME280;18301;51.076;17.046;2023-04-30T08:24:08;100698.41;;;14.63;54.70
31717;BME280;18301;51.076;17.046;2023-04-30T08:29:10;100704.06;;;15.02;51.93
31717;BME280;18301;51.076;17.046;2023-04-30T08:34:11;100695.22;;;15.00;52.43
31717;BME280;18301;51.076;17.046;2023-04-30T08:39:13;100692.94;;;15.05;52.59
31717;BME280;18301;51.076;17.046;2023-04-30T08:44:14;100696.56;;;15.46;51.00
31717;BME280;18301;51.076;17.046;2023-04-30T08:49:16;100691.41;;;15.42;51.16
31717;BME280;18301;51.076;17.046;2023-04-30T08:54:17;100707.00;;;15.10;52.28
31717;BME280;18301;51.076;17.046;2023-04-30T08:59:19;100709.97;;;15.07;51.80
31717;BME280;18301;51.076;17.046;2023-04-30T09:04:21;100706.22;;;14.77;48.81
31717;BME280;18301;51.076;17.046;2023-04-30T09:09:29;100709.28;;;14.63;51.17
31717;BME280;18301;51.076;17.046;2023-04-30T09:14:32;100712.16;;;15.13;51.24
31717;BME280;18301;51.076;17.046;2023-04-30T09:19:36;100716.75;;;14.91;50.10
31717;BME280;18301;51.076;17.046;2023-04-30T09:24:45;100710.06;;;15.26;49.88
31717;BME280;18301;51.076;17.046;2023-04-30T09:29:47;100728.41;;;15.24;45.61
31717;BME280;18301;51.076;17.046;2023-04-30T09:34:49;100728.81;;;14.99;44.26
31717;BME280;18301;51.076;17.046;2023-04-30T09:39:54;100728.47;;;15.13;45.72
31717;BME280;18301;51.076;17.046;2023-04-30T09:44:56;100713.72;;;15.36;44.91
31717;BME280;18301;51.076;17.046;2023-04-30T09:49:58;100721.69;;;15.28;43.52
31717;BME280;18301;51.076;17.046;2023-04-30T09:55:00;100701.34;;;15.63;45.64
31717;BME280;18301;51.076;17.046;2023-04-30T10:00:02;100704.19;;;16.02;44.62
31717;BME280;18301;51.076;17.046;2023-04-30T10:05:04;100704.78;;;16.15;44.18
31717;BME280;18301;51.076;17.046;2023-04-30T10:10:07;100698.75;;;16.21;42.25
31717;BME280;18301;51.076;17.046;2023-04-30T10:15:30;100696.59;;;16.34;43.94
31717;BME280;18301;51.076;17.046;2023-04-30T10:20:34;100695.03;;;16.22;43.52
31717;BME280;18301;51.076;17.046;2023-04-30T10:25:37;100696.19;;;16.29;43.37
31717;BME280;18301;51.076;17.046;2023-04-30T10:30:41;100689.84;;;16.19;43.83
31717;BME280;18301;51.076;17.046;2023-04-30T10:35:56;100689.00;;;16.28;45.82
31717;BME280;18301;51.076;17.046;2023-04-30T10:40:59;100684.97;;;16.13;45.20
31717;BME280;18301;51.076;17.046;2023-04-30T10:46:04;100692.72;;;16.08;45.46
31717;BME280;18301;51.076;17.046;2023-04-30T10:51:07;100683.84;;;16.06;46.03
31717;BME280;18301;51.076;17.046;2023-04-30T10:56:08;100683.41;;;16.40;42.79
31717;BME280;18301;51.076;17.046;2023-04-30T11:01:11;100680.66;;;16.01;44.73
31717;BME280;18301;51.076;17.046;2023-04-30T11:06:15;100675.38;;;16.28;44.45
31717;BME280;18301;51.076;17.046;2023-04-30T11:11:20;100677.53;;;16.34;42.51
31717;BME280;18301;51.076;17.046;2023-04-30T11:16:30;100668.38;;;16.36;41.53
31717;BME280;18301;51.076;17.046;2023-04-30T11:21:31;100674.53;;;16.57;41.83
31717;BME280;18301;51.076;17.046;2023-04-30T11:27:02;100665.19;;;16.50;41.44
31717;BME280;18301;51.076;17.046;2023-04-30T11:32:06;100673.94;;;16.63;41.17
31717;BME280;18301;51.076;17.046;2023-04-30T11:37:08;100694.28;;;16.59;39.41
31717;BME280;18301;51.076;17.046;2023-04-30T11:42:16;100684.69;;;15.97;39.86
31717;BME280;18301;51.076;17.046;2023-04-30T11:47:18;100670.88;;;15.69;39.43
31717;BME280;18301;51.076;17.046;2023-04-30T11:52:20;100680.38;;;16.04;40.59
31717;BME280;18301;51.076;17.046;2023-04-30T11:57:21;100668.66;;;16.32;40.61
31717;BME280;18301;51.076;17.046;2023-04-30T12:02:23;100680.69;;;16.49;38.42
31717;BME280;18301;51.076;17.046;2023-04-30T12:07:25;100672.66;;;16.28;39.46
31717;BME280;18301;51.076;17.046;2023-04-30T12:12:28;100679.69;;;16.60;38.87
31717;BME280;18301;51.076;17.046;2023-04-30T12:17:31;100667.50;;;16.45;39.77
31717;BME280;18301;51.076;17.046;2023-04-30T12:22:34;100666.66;;;16.54;37.66
31717;BME280;18301;51.076;17.046;2023-04-30T12:27:36;100672.94;;;16.54;38.98
31717;BME280;18301;51.076;17.046;2023-04-30T12:32:39;100678.94;;;16.77;35.73
31717;BME280;18301;51.076;17.046;2023-04-30T12:37:45;100674.66;;;16.85;37.25
31717;BME280;18301;51.076;17.046;2023-04-30T12:42:47;100678.94;;;16.77;36.39
31717;BME280;18301;51.076;17.046;2023-04-30T12:47:52;100660.03;;;16.47;38.86
31717;BME280;18301;51.076;17.046;2023-04-30T12:52:54;100658.28;;;16.65;38.95
31717;BME280;18301;51.076;17.046;2023-04-30T12:58:06;100663.75;;;16.85;38.30
31717;BME280;18301;51.076;17.046;2023-04-30T13:03:08;100655.28;;;16.68;37.87
31717;BME280;18301;51.076;17.046;2023-04-30T13:08:12;100653.44;;;16.69;38.96
31717;BME280;18301;51.076;17.046;2023-04-30T13:13:15;100650.22;;;16.93;39.01
31717;BME280;18301;51.076;17.046;2023-04-30T13:18:17;100654.00;;;16.72;37.37
31717;BME280;18301;51.076;17.046;2023-04-30T13:23:18;100651.13;;;16.64;38.39
31717;BME280;18301;51.076;17.046;2023-04-30T13:28:20;100646.50;;;16.74;38.73
31717;BME280;18301;51.076;17.046;2023-04-30T13:33:21;100640.03;;;16.95;38.79
31717;BME280;18301;51.076;17.046;2023-04-30T13:38:22;100650.69;;;16.59;37.38
31717;BME280;18301;51.076;17.046;2023-04-30T13:43:24;100642.25;;;16.82;38.49
31717;BME280;18301;51.076;17.046;2023-04-30T13:48:25;100645.66;;;16.84;38.42
31717;BME280;18301;51.076;17.046;2023-04-30T13:53:27;100636.78;;;16.82;38.73
31717;BME280;18301;51.076;17.046;2023-04-30T13:58:28;100644.81;;;16.73;39.35
31717;BME280;18301;51.076;17.046;2023-04-30T14:03:30;100628.91;;;16.78;38.94
31717;BME280;18301;51.076;17.046;2023-04-30T14:08:31;100634.47;;;16.87;38.81
31717;BME280;18301;51.076;17.046;2023-04-30T14:13:34;100632.41;;;16.98;38.34
31717;BME280;18301;51.076;17.046;2023-04-30T14:18:35;100623.84;;;16.93;38.65
31717;BME280;18301;51.076;17.046;2023-04-30T14:23:37;100628.06;;;17.06;37.93
31717;BME280;18301;51.076;17.046;2023-04-30T14:28:39;100623.84;;;16.84;38.92
31717;BME280;18301;51.076;17.046;2023-04-30T14:33:41;100617.50;;;16.93;38.26
31717;BME280;18301;51.076;17.046;2023-04-30T14:38:42;100619.34;;;17.02;39.11
31717;BME280;18301;51.076;17.046;2023-04-30T14:43:44;100618.94;;;16.97;38.62
31717;BME280;18301;51.076;17.046;2023-04-30T14:48:45;100613.63;;;16.95;38.65
31717;BME280;18301;51.076;17.046;2023-04-30T14:53:47;100617.41;;;17.22;38.08
31717;BME280;18301;51.076;17.046;2023-04-30T14:58:48;100617.28;;;16.76;38.07
31717;BME280;18301;51.076;17.046;2023-04-30T15:03:49;100622.47;;;16.60;37.85
31717;BME280;18301;51.076;17.046;2023-04-30T15:08:51;100619.19;;;16.56;38.84
31717;BME280;18301;51.076;17.046;2023-04-30T15:13:53;100614.56;;;16.67;37.52
31717;BME280;18301;51.076;17.046;2023-04-30T15:18:55;100602.63;;;16.77;38.12
31717;BME280;18301;51.076;17.046;2023-04-30T15:23:57;100621.91;;;16.47;37.55
31717;BME280;18301;51.076;17.046;2023-04-30T15:28:58;100617.34;;;16.28;37.51
31717;BME280;18301;51.076;17.046;2023-04-30T15:34:00;100613.63;;;16.19;37.29
31717;BME280;18301;51.076;17.046;2023-04-30T15:39:01;100608.75;;;16.32;38.48
31717;BME280;18301;51.076;17.046;2023-04-30T15:44:03;100615.19;;;16.51;37.12
31717;BME280;18301;51.076;17.046;2023-04-30T15:49:05;100609.44;;;16.34;37.66
31717;BME280;18301;51.076;17.046;2023-04-30T15:54:06;100601.84;;;16.28;38.03
31717;BME280;18301;51.076;17.046;2023-04-30T15:59:10;100608.91;;;16.21;37.63
31717;BME280;18301;51.076;17.046;2023-04-30T16:04:11;100605.91;;;16.15;38.03
31717;BME280;18301;51.076;17.046;2023-04-30T16:09:13;100611.34;;;16.05;37.95
31717;BME280;18301;51.076;17.046;2023-04-30T16:14:19;100597.59;;;16.06;37.12
31717;BME280;18301;51.076;17.046;2023-04-30T16:19:21;100602.75;;;15.80;37.09
31717;BME280;18301;51.076;17.046;2023-04-30T16:24:22;100595.72;;;15.87;37.59
31717;BME280;18301;51.076;17.046;2023-04-30T16:29:24;100594.44;;;15.72;37.68
31717;BME280;18301;51.076;17.046;2023-04-30T16:34:26;100590.06;;;15.40;37.25
31717;BME280;18301;51.076;17.046;2023-04-30T16:39:27;100601.50;;;15.34;38.29
31717;BME280;18301;51.076;17.046;2023-04-30T16:44:28;100592.59;;;15.32;38.58
31717;BME280;18301;51.076;17.046;2023-04-30T16:49:30;100588.25;;;15.10;38.23
31717;BME280;18301;51.076;17.046;2023-04-30T16:54:31;100591.66;;;15.03;38.22
31717;BME280;18301;51.076;17.046;2023-04-30T16:59:33;100597.78;;;14.95;38.14
31717;BME280;18301;51.076;17.046;2023-04-30T17:04:34;100604.88;;;14.86;38.76
31717;BME280;18301;51.076;17.046;2023-04-30T17:09:36;100604.28;;;14.83;38.30
31717;BME280;18301;51.076;17.046;2023-04-30T17:14:37;100610.16;;;14.78;38.51
31717;BME280;18301;51.076;17.046;2023-04-30T17:19:39;100614.97;;;14.74;39.02
31717;BME280;18301;51.076;17.046;2023-04-30T17:24:40;100629.50;;;14.85;38.84
31717;BME280;18301;51.076;17.046;2023-04-30T17:29:42;100626.63;;;14.65;39.15
31717;BME280;18301;51.076;17.046;2023-04-30T17:34:44;100631.50;;;14.62;39.70
31717;BME280;18301;51.076;17.046;2023-04-30T17:39:46;100630.03;;;14.58;39.71
31717;BME280;18301;51.076;17.046;2023-04-30T17:44:47;100638.47;;;14.43;40.68
31717;BME280;18301;51.076;17.046;2023-04-30T17:49:49;100638.75;;;14.40;41.10
31717;BME280;18301;51.076;17.046;2023-04-30T17:54:50;100634.56;;;14.15;41.46
31717;BME280;18301;51.076;17.046;2023-04-30T17:59:52;100632.19;;;14.01;41.61
31717;BME280;18301;51.076;17.046;2023-04-30T18:04:54;100633.84;;;13.81;42.11
31717;BME280;18301;51.076;17.046;2023-04-30T18:09:56;100635.09;;;13.77;42.20
31717;BME280;18301;51.076;17.046;2023-04-30T18:14:58;100637.56;;;13.69;42.45
31717;BME280;18301;51.076;17.046;2023-04-30T18:20:00;100646.72;;;13.68;42.60
31717;BME280;18301;51.076;17.046;2023-04-30T18:25:02;100645.22;;;13.64;42.84
31717;BME280;18301;51.076;17.046;2023-04-30T18:30:04;100646.88;;;13.55;42.97
31717;BME280;18301;51.076;17.046;2023-04-30T18:35:07;100650.19;;;13.47;43.07
31717;BME280;18301;51.076;17.046;2023-04-30T18:40:09;100645.78;;;13.35;43.45
31717;BME280;18301;51.076;17.046;2023-04-30T18:45:10;100652.44;;;13.31;43.67
31717;BME280;18301;51.076;17.046;2023-04-30T18:50:12;100658.81;;;13.30;43.81
31717;BME280;18301;51.076;17.046;2023-04-30T18:55:20;100651.84;;;13.27;43.84
31717;BME280;18301;51.076;17.046;2023-04-30T19:00:22;100666.50;;;13.25;44.15
31717;BME280;18301;51.076;17.046;2023-04-30T19:05:23;100676.03;;;13.18;44.35
31717;BME280;18301;51.076;17.046;2023-04-30T19:10:25;100673.47;;;13.05;44.37
31717;BME280;18301;51.076;17.046;2023-04-30T19:15:26;100674.44;;;13.04;44.95
31717;BME280;18301;51.076;17.046;2023-04-30T19:20:29;100676.44;;;12.90;45.45
31717;BME280;18301;51.076;17.046;2023-04-30T19:25:31;100674.06;;;12.86;45.55
31717;BME280;18301;51.076;17.046;2023-04-30T19:30:32;100672.84;;;12.79;46.22
31717;BME280;18301;51.076;17.046;2023-04-30T19:35:34;100685.13;;;12.72;45.96
31717;BME280;18301;51.076;17.046;2023-04-30T19:40:36;100675.50;;;12.67;46.61
31717;BME280;18301;51.076;17.046;2023-04-30T19:45:45;100689.75;;;12.58;47.41
31717;BME280;18301;51.076;17.046;2023-04-30T19:50:48;100686.81;;;12.50;47.35
31717;BME280;18301;51.076;17.046;2023-04-30T19:55:50;100695.16;;;12.47;47.97
31717;BME280;18301;51.076;17.046;2023-04-30T20:00:53;100691.41;;;12.37;49.14
31717;BME280;18301;51.076;17.046;2023-04-30T20:05:56;100697.78;;;12.25;50.12
31717;BME280;18301;51.076;17.046;2023-04-30T20:10:58;100698.94;;;12.09;50.66
31717;BME280;18301;51.076;17.046;2023-04-30T20:16:02;100707.00;;;11.98;51.08
31717;BME280;18301;51.076;17.046;2023-04-30T20:21:04;100713.09;;;11.89;51.74
31717;BME280;18301;51.076;17.046;2023-04-30T20:26:08;100706.53;;;11.67;52.64
31717;BME280;18301;51.076;17.046;2023-04-30T20:31:11;100713.34;;;11.60;53.33
31717;BME280;18301;51.076;17.046;2023-04-30T20:36:13;100717.72;;;11.50;54.01
31717;BME280;18301;51.076;17.046;2023-04-30T20:41:15;100715.34;;;11.33;54.32
31717;BME280;18301;51.076;17.046;2023-04-30T20:46:16;100721.97;;;11.28;54.65
31717;BME280;18301;51.076;17.046;2023-04-30T20:51:18;100720.56;;;11.10;55.53
31717;BME280;18301;51.076;17.046;2023-04-30T20:56:19;100733.31;;;11.08;55.71
31717;BME280;18301;51.076;17.046;2023-04-30T21:01:21;100724.69;;;11.03;56.14
31717;BME280;18301;51.076;17.046;2023-04-30T21:06:23;100728.91;;;10.94;56.49
31717;BME280;18301;51.076;17.046;2023-04-30T21:11:25;100732.03;;;10.88;57.08
31717;BME280;18301;51.076;17.046;2023-04-30T21:16:26;100736.22;;;10.79;57.45
31717;BME280;18301;51.076;17.046;2023-04-30T21:21:28;100743.66;;;10.63;57.82
31717;BME280;18301;51.076;17.046;2023-04-30T21:26:29;100735.00;;;10.58;57.93
31717;BME280;18301;51.076;17.046;2023-04-30T21:31:31;100739.53;;;10.45;58.27
31717;BME280;18301;51.076;17.046;2023-04-30T21:36:32;100744.16;;;10.43;58.70
31717;BME280;18301;51.076;17.046;2023-04-30T21:41:35;100745.53;;;10.35;58.67
31717;BME280;18301;51.076;17.046;2023-04-30T21:46:36;100737.53;;;10.34;59.02
31717;BME280;18301;51.076;17.046;2023-04-30T21:51:38;100744.03;;;10.31;59.16
31717;BME280;18301;51.076;17.046;2023-04-30T21:56:40;100751.56;;;10.26;59.06
31717;BME280;18301;51.076;17.046;2023-04-30T22:01:41;100754.50;;;10.22;59.72
31717;BME280;18301;51.076;17.046;2023-04-30T22:06:43;100752.13;;;10.17;59.71
31717;BME280;18301;51.076;17.046;2023-04-30T22:11:44;100764.09;;;10.13;60.02
31717;BME280;18301;51.076;17.046;2023-04-30T22:16:46;100754.66;;;10.06;60.37
31717;BME280;18301;51.076;17.046;2023-04-30T22:21:48;100761.31;;;10.00;60.80
31717;BME280;18301;51.076;17.046;2023-04-30T22:26:49;100753.84;;;9.91;61.04
31717;BME280;18301;51.076;17.046;2023-04-30T22:31:50;100756.28;;;9.81;61.26
31717;BME280;18301;51.076;17.046;2023-04-30T22:36:52;100755.41;;;9.81;61.51
31717;BME280;18301;51.076;17.046;2023-04-30T22:41:54;100755.16;;;9.71;61.47
31717;BME280;18301;51.076;17.046;2023-04-30T22:46:56;100759.41;;;9.61;62.01
31717;BME280;18301;51.076;17.046;2023-04-30T22:51:58;100752.47;;;9.57;62.00
31717;BME280;18301;51.076;17.046;2023-04-30T22:57:00;100753.63;;;9.53;62.36
31717;BME280;18301;51.076;17.046;2023-04-30T23:02:01;100744.22;;;9.45;62.66
31717;BME280;18301;51.076;17.046;2023-04-30T23:07:03;100757.38;;;9.36;63.10
31717;BME280;18301;51.076;17.046;2023-04-30T23:12:04;100750.59;;;9.30;63.18
31717;BME280;18301;51.076;17.046;2023-04-30T23:17:06;100755.19;;;9.28;63.47
31717;BME280;18301;51.076;17.046;2023-04-30T23:22:08;100750.97;;;9.24;63.29
31717;BME280;18301;51.076;17.046;2023-04-30T23:27:10;100752.28;;;9.17;63.56
31717;BME280;18301;51.076;17.046;2023-04-30T23:32:12;100752.84;;;9.08;63.71
31717;BME280;18301;51.076;17.046;2023-04-30T23:37:14;100757.84;;;8.85;63.99
31717;BME280;18301;51.076;17.046;2023-04-30T23:42:16;100751.25;;;8.61;64.14
31717;BME280;18301;51.076;17.046;2023-04-30T23:47:17;100754.72;;;8.63;64.33
31717;BME280;18301;51.076;17.046;2023-04-30T23:52:18;100747.03;;;8.71;64.36
31717;BME280;18301;51.076;17.046;2023-04-30T23:57:20;100736.28;;;8.71;64.46
